createdAt,value
2023-03-21T00:02:02.736Z,20.11
2023-03-21T00:04:37.984Z,20.10
2023-03-21T00:07:10.934Z,20.06
2023-03-21T00:09:37.371Z,20.13
2023-03-21T00:12:03.814Z,20.06
2023-03-21T00:14:30.306Z,20.09
2023-03-21T00:16:56.757Z,20.11
2023-03-21T00:19:23.370Z,20.08
2023-03-21T00:22:05.979Z,20.04
2023-03-21T00:24:33.278Z,20.05
2023-03-21T00:27:12.519Z,20.03
2023-03-21T00:29:46.140Z,20.01
2023-03-21T00:32:12.567Z,20.16
2023-03-21T00:34:43.199Z,20.02
2023-03-21T00:37:20.891Z,20.07
2023-03-21T00:39:47.331Z,20.10
2023-03-21T00:42:13.812Z,20.06
2023-03-21T00:44:40.282Z,20.05
2023-03-21T00:47:08.122Z,19.99
2023-03-21T00:49:34.700Z,20.07
2023-03-21T00:52:14.614Z,20.01
2023-03-21T00:54:42.420Z,19.97
2023-03-21T00:57:08.858Z,20.00
2023-03-21T00:59:35.282Z,20.03
2023-03-21T05:06:20.617Z,19.63
2023-03-21T05:08:47.079Z,19.66
2023-03-21T05:11:13.521Z,19.60
2023-03-21T05:13:39.971Z,19.62
2023-03-21T05:16:06.411Z,19.69
2023-03-21T05:18:32.854Z,19.68
2023-03-21T05:20:59.337Z,19.64
2023-03-21T05:23:25.804Z,19.65
2023-03-21T05:25:52.292Z,19.66
2023-03-21T05:28:18.756Z,19.68
2023-03-21T05:30:45.235Z,19.63
2023-03-21T05:33:11.698Z,19.64
2023-03-21T05:35:38.360Z,19.66
2023-03-21T05:38:04.986Z,19.65
2023-03-21T05:40:31.421Z,19.64
2023-03-21T05:42:57.904Z,19.66
2023-03-21T05:45:24.342Z,19.65
2023-03-21T05:47:50.806Z,19.65
2023-03-21T05:50:17.273Z,19.59
2023-03-21T05:52:43.722Z,19.68
2023-03-21T05:55:10.170Z,19.62
2023-03-21T05:57:36.602Z,19.63
2023-03-21T06:00:03.047Z,19.68
2023-03-21T06:02:29.556Z,19.64
2023-03-21T06:04:56.023Z,19.61
2023-03-21T06:07:22.474Z,19.64
2023-03-21T06:09:48.904Z,19.62
2023-03-21T06:12:15.354Z,19.59
2023-03-21T06:14:41.784Z,19.57
2023-03-21T06:17:08.223Z,19.57
2023-03-21T06:19:34.662Z,19.58
2023-03-21T06:22:01.092Z,19.56
2023-03-21T06:24:27.543Z,19.62
2023-03-21T06:26:54.001Z,19.56
2023-03-21T06:29:20.448Z,19.62
2023-03-21T06:31:46.889Z,19.58
2023-03-21T06:34:13.378Z,19.58
2023-03-21T06:36:39.841Z,19.58
2023-03-21T06:39:06.272Z,19.58
2023-03-21T06:41:32.727Z,19.56
2023-03-21T06:43:59.175Z,19.60
2023-03-21T06:46:25.616Z,19.62
2023-03-21T06:48:52.100Z,19.66
2023-03-21T06:51:18.533Z,19.60
2023-03-21T06:53:44.972Z,19.53
2023-03-21T06:56:11.407Z,19.69
2023-03-21T06:58:37.843Z,19.63
2023-03-21T07:01:04.376Z,19.65
2023-03-21T07:03:30.816Z,19.60
2023-03-21T07:05:57.282Z,19.59
2023-03-21T07:08:23.711Z,19.59
2023-03-21T07:10:50.156Z,19.52
2023-03-21T07:13:16.667Z,19.53
2023-03-21T07:15:43.121Z,19.57
2023-03-21T07:18:09.579Z,19.52
2023-03-21T07:20:36.079Z,19.52
2023-03-21T07:23:02.565Z,19.53
2023-03-21T07:25:29.065Z,19.55
2023-03-21T07:27:55.519Z,19.59
2023-03-21T07:30:21.968Z,19.73
2023-03-21T07:32:48.417Z,19.89
2023-03-21T07:35:14.863Z,19.80
2023-03-21T07:37:41.320Z,19.68
2023-03-21T07:40:07.777Z,19.77
2023-03-21T07:42:34.224Z,19.80
2023-03-21T07:45:00.692Z,19.74
2023-03-21T07:47:27.129Z,19.80
2023-03-21T07:49:53.559Z,19.75
2023-03-21T07:52:20.081Z,19.75
2023-03-21T07:54:46.509Z,19.77
2023-03-21T07:57:13.806Z,19.80
2023-03-21T07:59:40.393Z,19.83
2023-03-21T08:02:06.866Z,19.84
2023-03-21T08:04:34.048Z,19.89
2023-03-21T08:07:00.504Z,19.89
2023-03-21T08:09:26.965Z,19.92
2023-03-21T08:11:53.403Z,19.97
2023-03-21T08:14:19.830Z,20.02
2023-03-21T08:16:46.357Z,20.02
2023-03-21T08:19:12.937Z,20.08
2023-03-21T08:21:39.383Z,20.08
2023-03-21T08:24:05.830Z,20.29
2023-03-21T08:26:32.294Z,20.34
2023-03-21T08:28:58.753Z,20.35
2023-03-21T08:31:25.295Z,20.28
2023-03-21T08:33:51.767Z,20.29
2023-03-21T08:36:18.267Z,20.29
2023-03-21T08:38:44.704Z,20.07
2023-03-21T08:41:11.158Z,19.98
2023-03-21T08:43:37.613Z,19.93
2023-03-21T08:46:04.140Z,19.97
2023-03-21T08:48:30.663Z,20.03
2023-03-21T08:50:57.116Z,20.00
2023-03-21T08:53:23.660Z,20.05
2023-03-21T08:55:50.139Z,19.97
2023-03-21T08:58:16.588Z,20.08
2023-03-21T09:00:43.052Z,20.08
2023-03-21T09:03:11.631Z,20.01
2023-03-21T09:05:38.478Z,20.03
2023-03-21T09:08:05.083Z,20.06
2023-03-21T09:10:31.536Z,20.06
2023-03-21T09:12:57.964Z,20.09
2023-03-21T09:15:24.654Z,20.06
2023-03-21T09:17:51.210Z,20.07
2023-03-21T09:20:17.652Z,20.01
2023-03-21T09:22:44.104Z,20.07
2023-03-21T09:25:10.557Z,20.04
2023-03-21T09:27:37.063Z,20.05
2023-03-21T09:30:03.524Z,20.09
2023-03-21T09:32:29.989Z,20.08
2023-03-21T09:34:56.522Z,20.07
2023-03-21T09:37:22.981Z,20.06
2023-03-21T09:39:49.446Z,20.04
2023-03-21T09:42:16.004Z,20.04
2023-03-21T09:44:42.464Z,20.07
2023-03-21T09:47:09.120Z,20.08
2023-03-21T09:49:35.589Z,20.07
2023-03-21T09:52:02.030Z,20.05
2023-03-21T09:54:28.473Z,20.08
2023-03-21T09:56:54.910Z,20.11
2023-03-21T09:59:21.389Z,20.07
2023-03-21T10:01:47.865Z,20.09
2023-03-21T10:04:14.355Z,20.07
2023-03-21T10:06:40.853Z,20.09
2023-03-21T10:09:07.428Z,20.11
2023-03-21T10:11:34.014Z,20.12
2023-03-21T10:14:00.467Z,20.11
2023-03-21T10:16:26.978Z,20.09
2023-03-21T10:18:53.420Z,20.06
2023-03-21T10:21:43.145Z,20.07
2023-03-21T10:24:06.310Z,20.06
2023-03-21T10:26:32.789Z,20.46
2023-03-21T10:28:59.313Z,20.70
2023-03-21T10:31:25.837Z,20.64
2023-03-21T10:33:52.459Z,20.52
2023-03-21T10:36:18.937Z,20.60
2023-03-21T10:38:45.431Z,20.56
2023-03-21T10:41:11.872Z,20.56
2023-03-21T10:43:38.402Z,20.55
2023-03-21T10:46:04.935Z,20.61
2023-03-21T10:48:31.564Z,20.68
2023-03-21T10:50:58.194Z,20.78
2023-03-21T10:53:24.671Z,20.57
2023-03-21T10:55:51.159Z,20.52
2023-03-21T10:58:17.658Z,20.54
2023-03-21T11:00:44.114Z,20.42
2023-03-21T11:03:10.547Z,20.42
2023-03-21T11:05:37.362Z,20.30
2023-03-21T11:08:04.010Z,20.35
2023-03-21T11:10:30.533Z,20.53
2023-03-21T11:12:57.041Z,20.69
2023-03-21T11:15:23.506Z,20.79
2023-03-21T11:17:49.976Z,20.75
2023-03-21T11:20:16.430Z,20.72
2023-03-21T11:22:42.905Z,20.81
2023-03-21T11:25:09.376Z,20.83
2023-03-21T11:27:35.826Z,20.94
2023-03-21T11:30:02.281Z,20.94
2023-03-21T11:32:28.740Z,20.81
2023-03-21T11:34:55.179Z,20.86
2023-03-21T11:37:21.657Z,20.87
2023-03-21T11:39:48.137Z,20.92
2023-03-21T11:42:14.619Z,20.95
2023-03-21T11:44:41.090Z,20.90
2023-03-21T11:47:07.549Z,20.90
2023-03-21T11:49:34.026Z,20.88
2023-03-21T11:52:00.460Z,21.05
2023-03-21T11:54:26.924Z,21.01
2023-03-21T11:56:53.423Z,20.97
2023-03-21T11:59:19.881Z,21.03
2023-03-21T12:01:46.342Z,21.28
2023-03-21T12:04:12.865Z,21.00
2023-03-21T12:06:39.358Z,21.13
2023-03-21T12:09:05.812Z,21.38
2023-03-21T12:11:32.259Z,21.28
2023-03-21T12:13:58.836Z,21.31
2023-03-21T12:16:25.389Z,21.22
2023-03-21T12:18:51.921Z,21.21
2023-03-21T12:21:18.374Z,21.28
2023-03-21T12:23:44.821Z,21.28
2023-03-21T12:26:11.270Z,21.25
2023-03-21T12:28:37.748Z,21.09
2023-03-21T12:31:04.284Z,20.83
2023-03-21T12:33:30.790Z,20.91
2023-03-21T12:35:57.286Z,20.91
2023-03-21T12:38:23.742Z,21.05
2023-03-21T12:40:50.176Z,21.01
2023-03-21T12:43:16.628Z,21.02
2023-03-21T12:45:47.448Z,21.00
2023-03-21T12:48:14.219Z,20.89
2023-03-21T12:50:40.704Z,20.97
2023-03-21T12:53:07.178Z,21.14
2023-03-21T12:55:33.621Z,21.24
2023-03-21T12:58:00.091Z,21.32
2023-03-21T13:00:26.611Z,21.35
2023-03-21T13:02:53.082Z,21.33
2023-03-21T13:05:19.555Z,21.29
2023-03-21T13:07:45.999Z,21.27
2023-03-21T13:10:12.438Z,21.24
2023-03-21T13:12:38.883Z,21.22
2023-03-21T13:15:07.967Z,21.14
2023-03-21T13:17:36.563Z,21.20
2023-03-21T13:20:03.009Z,21.12
2023-03-21T13:22:29.479Z,20.96
2023-03-21T13:24:55.938Z,20.91
2023-03-21T13:27:22.377Z,20.86
2023-03-21T13:29:48.848Z,20.86
2023-03-21T13:32:15.332Z,20.88
2023-03-21T13:34:41.908Z,20.90
2023-03-21T13:37:08.350Z,21.03
2023-03-21T13:39:34.799Z,21.01
2023-03-21T13:42:01.256Z,20.90
2023-03-21T13:44:27.691Z,20.98
2023-03-21T13:46:54.926Z,20.98
2023-03-21T13:49:21.480Z,21.10
2023-03-21T13:51:47.955Z,21.25
2023-03-21T13:54:14.404Z,21.22
2023-03-21T13:56:40.847Z,21.15
2023-03-21T13:59:07.281Z,21.22
2023-03-21T14:01:33.815Z,21.18
2023-03-21T14:04:00.366Z,21.13
2023-03-21T14:06:26.821Z,21.09
2023-03-21T14:08:53.269Z,21.05
2023-03-21T14:11:19.724Z,21.03
2023-03-21T14:13:51.262Z,21.03
2023-03-21T14:16:18.232Z,21.02
2023-03-21T14:19:00.085Z,21.00
2023-03-21T14:21:26.585Z,20.98
2023-03-21T14:23:53.045Z,21.00
2023-03-21T14:26:19.501Z,21.02
2023-03-21T14:28:45.991Z,20.98
2023-03-21T14:31:12.483Z,20.99
2023-03-21T14:33:38.976Z,20.97
2023-03-21T14:36:05.493Z,20.96
2023-03-21T14:38:31.953Z,20.95
2023-03-21T14:40:58.405Z,20.96
2023-03-21T14:43:24.883Z,20.98
2023-03-21T14:45:51.439Z,20.99
2023-03-21T14:48:17.938Z,21.05
2023-03-21T14:50:44.422Z,21.04
2023-03-21T14:53:10.868Z,21.09
2023-03-21T14:55:37.558Z,21.08
2023-03-21T14:58:06.267Z,21.03
2023-03-21T15:00:33.169Z,20.78
2023-03-21T15:02:59.687Z,20.81
2023-03-21T15:05:26.178Z,20.91
2023-03-21T15:07:52.623Z,20.94
2023-03-21T15:10:19.138Z,20.92
2023-03-21T15:12:45.581Z,20.97
2023-03-21T15:15:12.026Z,21.12
2023-03-21T15:17:38.493Z,21.03
2023-03-21T15:20:04.945Z,21.00
2023-03-21T15:22:31.453Z,20.96
2023-03-21T15:24:57.907Z,20.97
2023-03-21T15:27:24.389Z,20.97
2023-03-21T15:29:50.837Z,20.95
2023-03-21T15:32:17.312Z,20.95
2023-03-21T15:34:43.762Z,20.97
2023-03-21T15:37:10.201Z,20.93
2023-03-21T15:39:36.652Z,20.96
2023-03-21T15:42:03.096Z,20.96
2023-03-21T15:44:29.572Z,20.97
2023-03-21T15:46:56.125Z,21.00
2023-03-21T15:49:22.659Z,21.02
2023-03-21T15:51:49.112Z,21.00
2023-03-21T15:54:16.371Z,21.00
2023-03-21T15:56:42.897Z,20.98
2023-03-21T15:59:09.338Z,21.01
2023-03-21T16:01:35.817Z,21.02
2023-03-21T16:04:02.277Z,20.98
2023-03-21T16:06:28.714Z,20.97
2023-03-21T16:08:55.205Z,21.01
2023-03-21T16:11:21.642Z,20.97
2023-03-21T16:13:48.086Z,20.96
2023-03-21T16:16:14.589Z,20.96
2023-03-21T16:18:41.113Z,20.97
2023-03-21T16:21:07.566Z,21.01
2023-03-21T16:23:34.025Z,20.95
2023-03-21T16:26:00.468Z,20.93
2023-03-21T16:28:26.928Z,20.94
2023-03-21T16:30:53.375Z,20.92
2023-03-21T16:33:19.826Z,20.91
2023-03-21T16:35:46.318Z,20.93
2023-03-21T16:38:12.793Z,20.91
2023-03-21T16:40:39.569Z,20.91
2023-03-21T16:43:06.290Z,20.92
2023-03-21T16:45:32.830Z,20.97
2023-03-21T16:47:59.451Z,21.00
2023-03-21T16:50:25.914Z,20.97
2023-03-21T16:52:52.355Z,20.96
2023-03-21T16:55:18.805Z,21.02
2023-03-21T16:57:45.248Z,20.90
2023-03-21T17:00:11.721Z,21.00
2023-03-21T17:02:38.159Z,21.03
2023-03-21T17:05:05.009Z,21.07
2023-03-21T17:07:31.527Z,21.25
2023-03-21T17:09:57.992Z,21.10
2023-03-21T17:12:24.443Z,21.11
2023-03-21T17:14:50.913Z,21.15
2023-03-21T17:17:17.375Z,21.11
2023-03-21T17:19:43.862Z,21.04
2023-03-21T17:22:13.229Z,20.92
2023-03-21T17:24:40.476Z,20.89
2023-03-21T17:27:06.927Z,20.91
2023-03-21T17:29:33.415Z,20.90
2023-03-21T17:31:59.894Z,20.86
2023-03-21T17:34:26.331Z,20.85
2023-03-21T17:36:52.774Z,20.84
2023-03-21T17:39:19.225Z,20.88
2023-03-21T17:41:45.688Z,20.87
2023-03-21T17:44:12.158Z,20.95
2023-03-21T17:46:38.728Z,20.97
2023-03-21T17:49:05.261Z,21.00
2023-03-21T17:51:31.716Z,20.98
2023-03-21T17:53:58.163Z,21.03
2023-03-21T17:56:24.607Z,20.90
2023-03-21T17:58:51.076Z,20.96
2023-03-21T18:01:17.520Z,20.95
2023-03-21T18:03:43.963Z,20.97
2023-03-21T18:06:10.431Z,20.94
2023-03-21T18:08:36.875Z,20.93
2023-03-21T18:11:03.332Z,20.92
2023-03-21T18:13:29.807Z,20.92
2023-03-21T18:15:56.553Z,20.94
2023-03-21T18:18:23.080Z,20.90
2023-03-21T18:20:52.950Z,20.89
2023-03-21T18:23:20.354Z,20.88
2023-03-21T18:25:47.158Z,20.88
2023-03-21T18:28:13.988Z,20.90
2023-03-21T18:33:26.963Z,20.88
2023-03-21T18:35:58.737Z,20.88
2023-03-21T18:38:25.949Z,20.89
2023-03-21T18:40:52.429Z,20.92
2023-03-21T18:46:05.353Z,20.97
2023-03-21T18:48:34.026Z,20.94
2023-03-21T18:51:00.720Z,20.98
2023-03-21T18:53:27.187Z,20.97
2023-03-21T18:55:53.719Z,20.95
2023-03-21T18:58:20.472Z,20.98
2023-03-21T19:00:47.032Z,20.98
2023-03-21T19:03:24.780Z,20.93
2023-03-21T19:05:59.274Z,20.90
2023-03-21T19:08:25.732Z,20.91
2023-03-21T19:10:52.174Z,20.90
2023-03-21T19:13:18.628Z,20.90
2023-03-21T19:15:45.825Z,20.85
2023-03-21T19:20:58.776Z,21.04
2023-03-21T19:23:32.183Z,21.40
2023-03-21T19:26:07.188Z,21.40
2023-03-21T19:28:33.629Z,21.29
2023-03-21T19:31:00.129Z,21.27
2023-03-21T19:33:26.591Z,21.57
2023-03-21T19:36:10.856Z,21.58
2023-03-21T19:38:39.470Z,21.52
2023-03-21T19:41:05.909Z,21.38
2023-03-21T19:43:33.552Z,21.42
2023-03-21T19:46:00.428Z,21.25
2023-03-21T19:48:27.185Z,21.11
2023-03-21T19:51:24.756Z,21.02
2023-03-21T19:53:40.144Z,21.11
2023-03-21T19:56:19.644Z,21.00
2023-03-21T19:58:47.881Z,21.00
2023-03-21T20:01:14.425Z,21.07
2023-03-21T20:03:40.903Z,21.13
2023-03-21T20:06:07.349Z,21.28
2023-03-21T20:08:51.809Z,21.41
2023-03-21T20:11:20.230Z,21.45
2023-03-21T20:13:46.682Z,21.48
2023-03-21T20:16:13.171Z,21.37
2023-03-21T20:18:39.659Z,21.46
2023-03-21T20:21:06.115Z,21.47
2023-03-21T20:23:32.561Z,21.41
2023-03-21T20:25:59.040Z,21.38
2023-03-21T20:28:28.441Z,21.36
2023-03-21T20:30:55.567Z,21.32
2023-03-21T20:33:22.082Z,21.30
2023-03-21T20:38:34.949Z,21.32
2023-03-21T20:41:01.420Z,21.27
2023-03-21T20:46:14.402Z,21.29
2023-03-21T20:48:40.893Z,21.31
2023-03-21T20:51:57.842Z,21.27
2023-03-21T20:53:53.804Z,21.26
2023-03-21T20:56:20.268Z,21.30
2023-03-21T20:59:02.010Z,21.30
2023-03-21T21:01:33.155Z,21.35
2023-03-21T21:04:00.497Z,21.28
2023-03-21T21:06:27.088Z,21.24
2023-03-21T21:08:53.562Z,21.23
2023-03-21T21:12:03.084Z,21.20
2023-03-21T21:14:06.474Z,21.25
2023-03-21T21:16:32.942Z,21.24
2023-03-21T21:18:59.434Z,21.18
2023-03-21T21:21:25.909Z,21.21
2023-03-21T21:23:52.435Z,21.31
2023-03-21T21:26:18.959Z,21.22
2023-03-21T21:28:45.467Z,21.19
2023-03-21T21:31:12.607Z,21.21
2023-03-21T21:33:39.235Z,21.18
2023-03-21T21:36:05.698Z,21.33
2023-03-21T21:38:32.176Z,21.28
2023-03-21T21:40:58.617Z,21.21
2023-03-21T21:43:25.083Z,21.20
2023-03-21T21:45:51.552Z,21.24
2023-03-21T21:48:18.082Z,21.15
2023-03-21T21:50:44.584Z,21.15
2023-03-21T21:53:11.035Z,21.15
2023-03-21T21:55:37.497Z,21.15
2023-03-21T21:58:03.948Z,21.10
2023-03-21T22:00:30.437Z,21.10
2023-03-21T22:02:56.925Z,21.09
2023-03-21T22:05:23.418Z,21.10
2023-03-21T22:07:49.892Z,21.13
2023-03-21T22:10:16.331Z,21.13
2023-03-21T22:12:42.802Z,21.19
2023-03-21T22:15:09.260Z,21.11
2023-03-21T22:17:35.724Z,21.15
2023-03-21T22:20:06.522Z,21.07
2023-03-21T22:22:33.196Z,21.12
2023-03-21T22:24:59.659Z,21.06
2023-03-21T22:27:26.114Z,21.05
2023-03-21T22:29:52.566Z,21.05
2023-03-21T22:32:19.052Z,21.10
2023-03-21T22:34:45.575Z,21.15
2023-03-21T22:37:12.027Z,21.31
2023-03-21T22:39:38.478Z,21.29
2023-03-21T22:42:04.964Z,21.23
2023-03-21T22:44:31.433Z,21.13
2023-03-21T22:46:57.912Z,21.11
2023-03-21T22:49:24.375Z,21.09
2023-03-21T22:51:50.872Z,21.08
2023-03-21T22:54:17.365Z,21.14
2023-03-21T22:56:43.823Z,21.03
2023-03-21T22:59:10.314Z,21.08
2023-03-21T23:01:36.829Z,21.01
2023-03-21T23:04:03.338Z,21.07
2023-03-21T23:06:29.831Z,21.11
2023-03-21T23:08:56.281Z,21.09
2023-03-21T23:11:22.738Z,21.06
2023-03-21T23:13:58.738Z,21.04
2023-03-21T23:16:31.684Z,21.06
2023-03-21T23:18:58.159Z,21.09
2023-03-21T23:21:24.628Z,21.05
2023-03-21T23:23:51.103Z,21.04
2023-03-21T23:26:17.580Z,21.06
2023-03-21T23:28:44.060Z,20.97
2023-03-21T23:31:10.552Z,21.09
2023-03-21T23:33:37.019Z,21.13
2023-03-21T23:36:03.534Z,20.97
2023-03-21T23:38:30.008Z,20.99
2023-03-21T23:40:56.481Z,20.98
2023-03-21T23:43:22.966Z,20.95
2023-03-21T23:45:49.466Z,21.03
2023-03-21T23:48:15.975Z,21.05
2023-03-21T23:50:42.462Z,21.07
2023-03-21T23:53:08.916Z,21.12
2023-03-21T23:55:35.382Z,21.04
2023-03-21T23:58:01.827Z,21.06
